Time;durP1;ratioP1;P1;durP2;ratioP2;P2;SDS_P1;SDS_P2;PMS_P1;PMS_P2;Temp;Humidity;BMP_temperature;BMP_pressure;BME280_temperature;BME280_humidity;BME280_pressure;Samples;Min_cycle;Max_cycle;Signal;HPM_P1;HPM_P2
2023/01/26 05:30:34;;;;;;;;;48.33;39.33;;;;;4.69;72.17;101986.09;5066852;27;45851;-75
2023/01/26 05:33:05;;;;;;;;;59.67;43.00;;;;;4.72;71.88;101980.78;5051867;28;45863;-75
2023/01/26 05:35:30;;;;;;;;;52.67;44.00;;;;;4.69;72.10;101974.59;5018503;28;47642;-74
2023/01/26 05:37:56;;;;;;;;;62.33;43.67;;;;;4.73;72.11;101987.88;5036082;28;45658;-77
2023/01/26 05:40:21;;;;;;;;;47.00;41.33;;;;;4.65;71.75;101971.06;5034375;28;45692;-74
2023/01/26 05:42:47;;;;;;;;;46.33;40.00;;;;;4.66;72.17;101982.59;5031759;28;45682;-75
2023/01/26 05:45:12;;;;;;;;;51.00;40.67;;;;;4.65;72.44;101975.50;5036819;28;46870;-74
2023/01/26 05:47:38;;;;;;;;;57.67;40.00;;;;;4.65;72.10;101989.66;5035040;28;46370;-76
2023/01/26 05:50:05;;;;;;;;;56.00;43.67;;;;;4.63;72.43;101980.81;5036404;28;45413;-76
2023/01/26 05:52:31;;;;;;;;;57.00;42.00;;;;;4.45;72.26;101946.31;5036440;28;45367;-75
2023/01/26 05:54:57;;;;;;;;;48.33;41.00;;;;;4.65;72.58;101983.47;5036257;28;45533;-75
2023/01/26 05:57:22;;;;;;;;;49.00;32.00;;;;;4.65;72.61;101988.78;5036509;28;45391;-74
2023/01/26 05:59:47;;;;;;;;;53.67;43.00;;;;;4.57;72.58;101987.03;5035279;28;45399;-76
2023/01/26 06:02:13;;;;;;;;;59.33;42.33;;;;;4.57;72.69;101989.69;5035917;28;45311;-76
2023/01/26 06:04:39;;;;;;;;;49.00;38.33;;;;;4.50;72.72;101965.78;5036702;28;45555;-76
2023/01/26 06:07:04;;;;;;;;;40.00;33.67;;;;;4.53;72.33;101957.81;5004742;28;47108;-75
2023/01/26 06:09:30;;;;;;;;;38.67;33.67;;;;;4.63;72.43;101983.47;5038214;28;45274;-76
2023/01/26 06:11:56;;;;;;;;;42.75;32.75;;;;;4.46;73.02;101972.88;5036582;28;45466;-81
2023/01/26 06:14:21;;;;;;;;;39.75;35.50;;;;;4.55;72.88;101998.53;5036581;28;45442;-75
2023/01/26 06:16:47;;;;;;;;;43.00;37.00;;;;;4.51;72.80;101983.47;5035737;28;45698;-77
2023/01/26 06:19:12;;;;;;;;;51.67;40.33;;;;;4.22;73.08;101934.84;5036757;28;45377;-77
2023/01/26 06:21:38;;;;;;;;;54.67;43.67;;;;;4.36;72.89;101954.28;5036310;28;45489;-80
2023/01/26 06:24:04;;;;;;;;;48.00;40.67;;;;;4.55;73.48;101972.84;5017901;28;45932;-77
2023/01/26 06:26:29;;;;;;;;;49.00;42.33;;;;;4.41;73.55;101964.03;5035852;28;45398;-78
2023/01/26 06:28:54;;;;;;;;;53.33;39.33;;;;;4.29;73.92;101953.41;5036235;28;45412;-78
2023/01/26 06:31:22;;;;;;;;;58.00;44.67;;;;;4.46;74.11;101991.44;5035831;28;45353;-75
2023/01/26 06:33:48;;;;;;;;;50.00;42.00;;;;;4.42;74.23;101987.00;5017654;28;46035;-77
2023/01/26 06:36:14;;;;;;;;;46.33;35.67;;;;;4.42;74.33;101992.31;5034326;28;47023;-78
2023/01/26 06:38:54;;;;;;;;;65.33;43.67;;;;;4.21;74.32;101947.22;5036250;28;45436;-78
2023/01/26 06:41:19;;;;;;;;;48.67;42.33;;;;;4.18;74.83;101974.66;5017740;28;45458;-77
2023/01/26 06:43:47;;;;;;;;;46.33;39.33;;;;;3.94;75.42;101948.13;5035740;28;45493;-77
2023/01/26 06:46:12;;;;;;;;;63.67;43.33;;;;;4.09;75.59;101966.69;5035903;28;45666;-78
2023/01/26 06:48:37;;;;;;;;;44.00;35.00;;;;;4.12;75.50;101979.97;5035224;28;45710;-76
2023/01/26 06:51:15;;;;;;;;;46.67;41.67;;;;;4.13;76.09;101991.47;5035593;28;45648;-75
2023/01/26 06:53:50;;;;;;;;;54.00;43.00;;;;;4.17;75.47;101982.59;5035451;28;45561;-76
2023/01/26 06:56:16;;;;;;;;;55.67;43.00;;;;;4.07;75.48;101955.22;5035761;28;45646;-80
2023/01/26 06:58:41;;;;;;;;;49.00;43.00;;;;;4.28;75.35;101982.59;5034926;28;45375;-80
2023/01/26 07:01:13;;;;;;;;;47.33;37.00;;;;;4.24;75.04;101978.19;5034888;28;45439;-77
2023/01/26 07:03:38;;;;;;;;;42.33;40.67;;;;;4.12;74.87;101958.72;5016179;28;45514;-77
2023/01/26 07:06:04;;;;;;;;;58.67;40.33;;;;;4.22;74.77;101972.00;5036385;28;47284;-80
2023/01/26 07:08:30;;;;;;;;;34.00;28.33;;;;;4.35;74.49;101987.91;5019425;28;45556;-77
2023/01/26 07:10:55;;;;;;;;;39.33;39.00;;;;;4.41;74.81;102002.97;5035751;28;45396;-78
2023/01/26 07:13:21;;;;;;;;;46.00;36.33;;;;;4.48;74.72;101999.44;5035400;28;45605;-77
2023/01/26 07:15:46;;;;;;;;;42.25;32.75;;;;;4.26;74.33;101950.75;5035528;28;46734;-79
2023/01/26 07:18:11;;;;;;;;;50.00;37.33;;;;;4.61;74.71;101998.50;5034251;28;45363;-78
2023/01/26 07:20:37;;;;;;;;;54.33;42.33;;;;;4.60;74.62;101990.53;5035426;28;45474;-78
2023/01/26 07:23:02;;;;;;;;;41.67;35.00;;;;;4.68;74.41;101991.44;5034621;28;45470;-78
2023/01/26 07:25:27;;;;;;;;;49.67;42.00;;;;;4.62;74.24;101983.47;5034607;28;45392;-79
2023/01/26 07:27:57;;;;;;;;;45.67;30.33;;;;;4.59;74.01;101980.84;5034556;28;45478;-78
2023/01/26 07:30:22;;;;;;;;;53.33;42.00;;;;;4.63;74.15;101988.78;5035390;28;45489;-79
2023/01/26 07:32:48;;;;;;;;;43.33;33.33;;;;;4.43;74.04;101969.31;5034395;28;45253;-78
2023/01/26 07:35:13;;;;;;;;;39.00;36.00;;;;;4.54;74.84;101984.34;5034243;28;46030;-79
2023/01/26 07:37:38;;;;;;;;;41.75;39.00;;;;;4.47;74.26;101957.81;5033517;28;45756;-79
2023/01/26 07:40:04;;;;;;;;;40.33;40.00;;;;;4.53;74.53;101964.00;5035054;28;45272;-80
2023/01/26 07:42:30;;;;;;;;;41.00;34.33;;;;;4.54;74.68;101965.78;5034895;28;45178;-79
2023/01/26 07:44:55;;;;;;;;;40.00;34.00;;;;;4.78;74.45;101999.38;5034698;28;45515;-79
2023/01/26 07:47:20;;;;;;;;;45.33;34.67;;;;;4.72;74.46;101979.91;5034602;28;45253;-79
2023/01/26 07:49:46;;;;;;;;;42.67;37.67;;;;;4.61;74.14;101966.63;5035058;28;45222;-78
2023/01/26 07:52:12;;;;;;;;;47.33;40.67;;;;;4.79;74.15;102006.44;5032281;28;45336;-78
2023/01/26 07:54:37;;;;;;;;;50.00;38.33;;;;;4.65;74.78;101984.34;5034567;28;45637;-79
2023/01/26 07:57:05;;;;;;;;;49.00;40.25;;;;;4.78;74.71;102003.78;5034567;28;45300;-79
2023/01/26 07:59:31;;;;;;;;;51.00;40.25;;;;;4.60;74.80;101964.88;5034572;28;45460;-78
2023/01/26 08:01:56;;;;;;;;;51.67;40.33;;;;;4.95;74.90;102016.16;5016139;28;46008;-79
2023/01/26 08:04:22;;;;;;;;;46.33;34.33;;;;;4.77;74.56;101963.06;5034427;28;45884;-78
2023/01/26 08:06:50;;;;;;;;;53.67;43.00;;;;;5.02;74.20;101994.91;5034222;28;45320;-78
2023/01/26 08:09:15;;;;;;;;;56.50;41.50;;;;;5.00;73.75;101994.00;5007978;28;45287;-78
2023/01/26 08:11:41;;;;;;;;;42.25;34.50;;;;;5.15;73.56;102024.06;5033081;28;45459;-78
2023/01/26 08:14:06;;;;;;;;;50.00;45.00;;;;;5.02;73.41;101989.59;5034174;28;45512;-78
2023/01/26 08:16:32;;;;;;;;;40.50;36.75;;;;;5.08;73.66;102006.38;5034189;28;45535;-78
2023/01/26 08:18:57;;;;;;;;;53.50;43.00;;;;;5.15;73.56;102018.75;5033886;28;45299;-78
2023/01/26 08:21:23;;;;;;;;;48.00;40.25;;;;;5.24;73.27;102032.03;5032618;28;45472;-78
2023/01/26 08:23:49;;;;;;;;;57.00;38.25;;;;;5.28;73.67;102038.19;5034001;28;45691;-78
2023/01/26 08:26:16;;;;;;;;;49.00;41.25;;;;;5.28;73.16;102027.56;5014725;28;45534;-79
2023/01/26 08:28:42;;;;;;;;;59.33;44.00;;;;;5.29;73.39;102029.34;5032778;28;45965;-78
2023/01/26 08:31:10;;;;;;;;;48.33;42.00;;;;;5.30;73.66;102025.78;5038010;28;45520;-78
2023/01/26 08:33:37;;;;;;;;;58.00;44.00;;;;;5.46;73.31;102045.22;5052616;28;46149;-79
2023/01/26 08:36:04;;;;;;;;;52.33;42.33;;;;;5.51;73.38;102049.66;5053121;28;45453;-78
2023/01/26 08:38:31;;;;;;;;;59.67;46.00;;;;;5.57;72.56;102051.38;5053762;28;45403;-78
2023/01/26 08:40:58;;;;;;;;;56.33;42.33;;;;;5.63;73.09;102054.91;5053033;28;45785;-79
2023/01/26 08:43:23;;;;;;;;;54.00;43.00;;;;;5.68;72.48;102052.22;5053062;28;45717;-80
2023/01/26 08:45:48;;;;;;;;;61.00;49.00;;;;;5.67;72.15;102042.47;5014932;28;45404;-78
2023/01/26 08:48:14;;;;;;;;;62.00;47.67;;;;;5.61;71.89;102024.75;5019125;28;45337;-79
2023/01/26 08:50:39;;;;;;;;;59.67;45.33;;;;;5.73;71.85;102047.75;5036346;28;45385;-79
2023/01/26 08:53:04;;;;;;;;;42.25;39.50;;;;;5.89;71.84;102056.56;5018609;28;46268;-79
2023/01/26 08:55:31;;;;;;;;;55.50;42.75;;;;;5.87;71.16;102048.56;5037391;28;45257;-79
2023/01/26 08:57:56;;;;;;;;;51.50;39.00;;;;;5.88;71.49;102036.16;5037577;28;45473;-78
2023/01/26 09:00:22;;;;;;;;;51.50;39.00;;;;;5.98;70.86;102052.09;5037187;28;45570;-78
2023/01/26 09:02:48;;;;;;;;;48.50;39.25;;;;;5.97;70.80;102042.31;5037355;28;45915;-78
2023/01/26 09:05:13;;;;;;;;;47.75;39.50;;;;;6.10;70.80;102061.78;5052827;28;45497;-79
2023/01/26 09:07:39;;;;;;;;;46.00;37.25;;;;;5.80;70.30;102014.00;5038484;28;45372;-79
2023/01/26 09:10:05;;;;;;;;;41.75;38.00;;;;;6.00;70.41;102042.31;5037607;28;45900;-77
2023/01/26 09:12:30;;;;;;;;;35.00;34.25;;;;;6.16;70.42;102066.16;5043942;28;46399;-78
2023/01/26 09:14:55;;;;;;;;;50.00;39.25;;;;;6.11;69.83;102055.56;5057517;28;45237;-78
2023/01/26 09:17:21;;;;;;;;;47.00;37.75;;;;;6.00;70.26;102031.66;5057847;28;45453;-78
2023/01/26 09:19:46;;;;;;;;;35.75;34.75;;;;;6.10;70.11;102050.25;5059603;28;45611;-78
2023/01/26 09:22:13;;;;;;;;;49.00;37.50;;;;;6.07;69.88;102043.16;5057869;28;46518;-79
2023/01/26 09:24:38;;;;;;;;;35.00;34.00;;;;;6.31;69.59;102077.59;5057597;28;45354;-79
2023/01/26 09:27:03;;;;;;;;;41.50;37.25;;;;;6.29;69.63;102065.22;5059305;28;45256;-79
2023/01/26 09:29:29;;;;;;;;;43.75;37.75;;;;;6.40;69.44;102081.97;5058116;28;45303;-78
2023/01/26 09:31:54;;;;;;;;;49.00;38.25;;;;;6.38;69.05;102078.47;5056620;28;45248;-78
2023/01/26 09:34:19;;;;;;;;;60.75;43.50;;;;;6.37;69.05;102068.69;5056108;28;45316;-79
2023/01/26 09:36:45;;;;;;;;;61.00;45.25;;;;;6.46;69.22;102084.63;5056732;28;45234;-78
2023/01/26 09:39:10;;;;;;;;;57.50;46.00;;;;;6.33;69.46;102070.50;5056291;28;45498;-79
2023/01/26 09:42:03;;;;;;;;;55.00;39.00;;;;;6.44;69.31;102086.41;5056063;28;45581;-78
2023/01/26 09:44:38;;;;;;;;;47.50;40.75;;;;;6.39;69.30;102080.19;5046312;28;45459;-79
2023/01/26 09:47:47;;;;;;;;;52.75;42.50;;;;;6.46;69.56;102098.78;5036020;28;45177;-77
2023/01/26 09:50:39;;;;;;;;;47.75;38.25;;;;;6.45;69.36;102090.84;5003191;28;47908;-78
2023/01/26 09:53:15;;;;;;;;;42.25;37.25;;;;;6.43;69.02;102073.97;5035776;28;46239;-77
2023/01/26 09:55:44;;;;;;;;;41.75;37.00;;;;;6.24;69.36;102048.38;5035810;28;45362;-78
2023/01/26 09:58:18;;;;;;;;;38.00;34.50;;;;;6.23;69.22;102043.94;5037829;28;45537;-78
2023/01/26 10:00:56;;;;;;;;;42.25;35.25;;;;;6.53;69.45;102090.78;5036742;28;45447;-77
2023/01/26 10:03:42;;;;;;;;;39.00;36.25;;;;;6.57;68.99;102100.50;5035328;28;45510;-79
2023/01/26 10:06:28;;;;;;;;;46.50;38.00;;;;;6.43;68.96;102076.63;5035814;28;45248;-77
2023/01/26 10:08:56;;;;;;;;;35.75;31.75;;;;;6.57;69.32;102103.16;5024130;28;45334;-79
2023/01/26 10:11:31;;;;;;;;;42.25;37.75;;;;;6.59;69.30;102098.72;5035498;28;45374;-78
2023/01/26 10:14:02;;;;;;;;;43.00;38.75;;;;;6.51;68.61;102084.56;5035649;28;45428;-79
2023/01/26 10:16:27;;;;;;;;;53.25;45.25;;;;;6.58;69.33;102095.16;5035498;28;45383;-79
2023/01/26 10:18:58;;;;;;;;;45.50;36.50;;;;;6.63;69.28;102104.03;5039193;28;45336;-78
2023/01/26 10:21:29;;;;;;;;;54.25;38.75;;;;;6.55;69.04;102091.66;5035782;28;45527;-77
2023/01/26 10:23:57;;;;;;;;;50.00;41.00;;;;;6.52;69.05;102084.56;5035708;28;46521;-78
2023/01/26 10:26:23;;;;;;;;;47.25;40.50;;;;;6.19;69.56;102037.75;5035168;28;45557;-77
2023/01/26 10:28:50;;;;;;;;;46.75;38.50;;;;;6.59;69.77;102106.69;5035676;28;45313;-77
2023/01/26 10:31:21;;;;;;;;;44.00;37.75;;;;;6.45;69.52;102075.75;4994720;28;1178053;-79
2023/01/26 10:33:56;;;;;;;;;38.75;32.50;;;;;6.66;69.33;102114.63;5018990;28;47647;-79
2023/01/26 10:36:22;;;;;;;;;38.50;36.00;;;;;6.53;69.24;102086.34;5036374;28;45325;-79
2023/01/26 10:38:49;;;;;;;;;46.50;34.75;;;;;6.69;69.05;102111.06;5036933;28;45371;-80
2023/01/26 10:41:17;;;;;;;;;37.25;30.75;;;;;6.68;68.86;102109.28;5036352;28;45325;-80
2023/01/26 10:43:52;;;;;;;;;40.00;36.25;;;;;6.69;69.30;102113.72;5035781;28;46578;-80
2023/01/26 10:46:27;;;;;;;;;40.00;34.50;;;;;6.69;69.34;102103.06;5036482;28;45234;-78
2023/01/26 10:48:54;;;;;;;;;35.50;34.25;;;;;6.73;69.51;102107.47;5035921;28;45345;-79
2023/01/26 10:51:31;;;;;;;;;39.50;32.00;;;;;6.69;69.14;102085.31;5035947;28;45667;-78
2023/01/26 10:54:20;;;;;;;;;37.00;33.75;;;;;6.78;69.24;102095.00;5035953;28;45221;-78
2023/01/26 10:56:50;;;;;;;;;39.00;34.75;;;;;6.73;69.46;102079.03;5036305;28;45363;-78
2023/01/26 10:59:25;;;;;;;;;38.50;34.25;;;;;6.76;69.37;102078.13;5038253;28;45212;-78
2023/01/26 11:01:53;;;;;;;;;38.75;35.25;;;;;6.76;69.67;102068.34;5024498;28;45774;-78
2023/01/26 11:04:26;;;;;;;;;35.50;34.25;;;;;6.78;69.62;102071.00;5043766;28;45456;-79
2023/01/26 11:06:52;;;;;;;;;41.75;35.75;;;;;6.67;69.70;102041.78;5024540;28;45419;-78
2023/01/26 11:09:26;;;;;;;;;36.75;35.50;;;;;6.82;69.52;102059.41;5032750;28;45218;-78
2023/01/26 11:12:04;;;;;;;;;39.50;36.00;;;;;6.98;69.54;102082.34;5019552;28;46242;-78
2023/01/26 11:14:31;;;;;;;;;40.00;34.75;;;;;7.00;69.47;102077.91;5018705;28;46932;-78
2023/01/26 11:17:04;;;;;;;;;36.00;33.00;;;;;6.96;69.35;102069.97;5037047;28;45419;-81
2023/01/26 11:19:47;;;;;;;;;31.25;29.25;;;;;7.01;69.28;102071.66;5036210;28;45320;-81
2023/01/26 11:22:22;;;;;;;;;41.75;33.75;;;;;7.03;69.14;102069.00;5020414;28;46524;-80
2023/01/26 11:25:12;;;;;;;;;39.50;34.75;;;;;6.86;69.24;102036.28;5039196;28;45521;-78
2023/01/26 11:28:14;;;;;;;;;40.25;32.25;;;;;7.09;69.17;102068.91;5021213;28;45234;-81
2023/01/26 11:31:08;;;;;;;;;35.75;32.25;;;;;6.82;68.54;102009.66;5041799;28;45279;-78
2023/01/26 11:33:55;;;;;;;;;35.25;28.75;;;;;7.16;68.63;102058.16;5041627;28;46542;-79
2023/01/26 11:36:35;;;;;;;;;37.50;34.25;;;;;7.19;68.35;102055.47;5075221;28;45625;-79
2023/01/26 11:39:14;;;;;;;;;36.25;34.00;;;;;7.21;68.69;102059.03;5073927;28;45292;-79
2023/01/26 11:41:53;;;;;;;;;37.00;36.75;;;;;7.21;68.27;102056.34;5071304;28;45738;-80
2023/01/26 11:44:38;;;;;;;;;48.00;38.25;;;;;7.26;68.32;102056.28;5059939;28;45411;-78
2023/01/26 11:47:18;;;;;;;;;35.00;33.25;;;;;7.21;68.21;102034.13;5060977;28;45196;-78
2023/01/26 11:50:16;;;;;;;;;38.75;33.50;;;;;7.18;67.99;102027.03;5060675;28;45294;-80
2023/01/26 11:52:53;;;;;;;;;43.75;36.25;;;;;7.27;68.01;102047.38;5007482;28;45385;-79
2023/01/26 11:55:35;;;;;;;;;39.75;37.50;;;;;7.17;68.18;102029.72;5056224;28;45423;-79
2023/01/26 11:58:14;;;;;;;;;39.25;29.50;;;;;7.20;67.99;102030.56;5056786;28;45689;-80
2023/01/26 12:00:50;;;;;;;;;40.50;34.25;;;;;7.23;67.95;102032.31;5056588;28;45350;-79
2023/01/26 12:03:26;;;;;;;;;43.75;34.50;;;;;7.37;68.04;102054.38;5037637;28;45461;-80
2023/01/26 12:05:56;;;;;;;;;43.50;37.25;;;;;7.05;68.04;102011.22;5054999;28;45338;-79
2023/01/26 12:08:37;;;;;;;;;38.25;32.25;;;;;7.26;67.96;102039.41;5055049;28;45584;-78
2023/01/26 12:11:24;;;;;;;;;41.00;35.00;;;;;7.36;68.63;102059.75;5037240;28;45459;-80
2023/01/26 12:13:58;;;;;;;;;31.50;26.75;;;;;7.34;68.19;102054.41;5037088;28;45321;-79
2023/01/26 12:17:06;;;;;;;;;22.50;22.50;;;;;7.16;68.70;102028.84;5054888;28;45599;-77
2023/01/26 12:19:48;;;;;;;;;32.00;26.00;;;;;7.25;69.22;102046.50;5027859;28;45728;-79
2023/01/26 12:22:19;;;;;;;;;36.00;31.25;;;;;7.21;69.09;102047.47;5054752;28;45443;-79
2023/01/26 12:24:53;;;;;;;;;20.00;20.00;;;;;7.04;69.60;102017.44;5054908;28;45539;-80
2023/01/26 12:27:28;;;;;;;;;24.75;24.75;;;;;7.20;69.25;102035.03;5036828;28;46055;-79
2023/01/26 12:30:07;;;;;;;;;28.75;26.25;;;;;7.20;69.92;102038.59;5036233;28;46333;-79
2023/01/26 12:32:32;;;;;;;;;34.75;30.75;;;;;7.17;69.82;102033.28;5054027;28;45276;-79
2023/01/26 12:34:58;;;;;;;;;29.00;29.00;;;;;7.20;70.15;102021.69;5055025;28;45314;-80
2023/01/26 12:37:56;;;;;;;;;38.25;26.50;;;;;7.16;70.62;102015.50;5054726;28;45407;-78
2023/01/26 12:40:32;;;;;;;;;35.00;25.00;;;;;7.21;70.83;102016.34;5054498;28;46137;-80
2023/01/26 12:43:28;;;;;;;;;33.75;27.00;;;;;7.22;71.52;102017.22;5054992;28;45328;-78
2023/01/26 12:45:56;;;;;;;;;28.50;22.75;;;;;7.06;70.95;101983.66;5035485;28;45616;-78
2023/01/26 12:48:39;;;;;;;;;23.50;21.75;;;;;7.04;71.30;101975.66;5036325;28;46078;-79
2023/01/26 12:51:10;;;;;;;;;24.00;22.75;;;;;7.21;71.80;102007.47;5054645;28;45330;-77
2023/01/26 12:53:40;;;;;;;;;27.00;23.00;;;;;6.84;71.57;101935.00;5054619;28;45498;-79
2023/01/26 12:56:16;;;;;;;;;21.25;21.25;;;;;7.25;71.62;102006.50;5036773;28;45261;-79
2023/01/26 12:58:45;;;;;;;;;26.00;22.75;;;;;7.21;71.44;101999.47;5055253;28;45448;-77
2023/01/26 13:01:14;;;;;;;;;26.00;25.00;;;;;7.03;71.27;101959.69;5054610;28;46301;-79
2023/01/26 13:03:43;;;;;;;;;22.50;22.50;;;;;7.00;71.88;101954.38;5054220;28;45471;-78
2023/01/26 13:06:08;;;;;;;;;23.50;22.25;;;;;7.29;71.76;102000.25;5054218;28;45522;-78
2023/01/26 13:08:34;;;;;;;;;21.25;21.25;;;;;7.31;71.84;101993.13;5053966;28;45339;-78
2023/01/26 13:11:05;;;;;;;;;21.50;20.00;;;;;7.25;71.74;101982.50;5054185;28;45851;-78
2023/01/26 13:13:55;;;;;;;;;19.50;19.50;;;;;7.31;71.43;101986.91;5054230;28;45305;-79
2023/01/26 13:16:23;;;;;;;;;27.25;20.00;;;;;7.34;70.36;101985.06;5054194;28;45520;-80
2023/01/26 13:18:50;;;;;;;;;19.25;16.00;;;;;7.15;70.73;101955.06;5054256;28;45223;-78
2023/01/26 13:21:27;;;;;;;;;15.25;15.25;;;;;7.20;70.87;101965.69;5053832;28;46390;-79
2023/01/26 13:23:53;;;;;;;;;17.50;17.50;;;;;7.23;70.90;101974.50;5036086;28;45509;-78
2023/01/26 13:26:30;;;;;;;;;25.75;24.00;;;;;7.35;70.87;101997.50;5054235;28;45541;-79
2023/01/26 13:29:28;;;;;;;;;21.25;20.00;;;;;7.32;71.11;101996.63;5050470;28;45407;-80
2023/01/26 13:31:55;;;;;;;;;22.00;21.00;;;;;7.32;71.10;101993.97;5053949;28;45373;-80
2023/01/26 13:34:37;;;;;;;;;26.75;25.00;;;;;7.34;70.51;101994.84;5039248;28;45592;-78
2023/01/26 13:37:13;;;;;;;;;23.50;23.25;;;;;7.34;70.97;102002.84;5057445;28;45476;-78
2023/01/26 13:39:43;;;;;;;;;33.00;26.25;;;;;7.32;71.29;102000.19;5057561;28;45478;-80
2023/01/26 13:42:51;;;;;;;;;34.50;28.00;;;;;7.11;70.78;101956.00;5057444;28;46102;-78
2023/01/26 13:45:24;;;;;;;;;16.00;16.00;;;;;7.29;70.79;102005.59;5040081;28;45341;-79
2023/01/26 13:47:52;;;;;;;;;18.50;16.00;;;;;7.04;70.93;101956.13;5037650;28;45372;-78
2023/01/26 13:50:23;;;;;;;;;15.00;14.00;;;;;7.22;70.82;102006.56;5037050;28;45478;-79
2023/01/26 13:52:49;;;;;;;;;17.25;17.25;;;;;7.20;70.99;102003.03;5037561;28;45821;-80
2023/01/26 13:55:24;;;;;;;;;17.50;15.50;;;;;7.10;70.75;101982.69;5019234;28;45598;-78
2023/01/26 13:58:10;;;;;;;;;17.75;15.75;;;;;7.18;71.30;101992.38;5037222;28;45419;-79
2023/01/26 14:00:35;;;;;;;;;18.75;16.50;;;;;7.23;71.25;102003.84;5036695;28;45541;-79
2023/01/26 14:03:01;;;;;;;;;11.25;10.50;;;;;7.19;70.99;101999.47;5036700;28;45978;-78
2023/01/26 14:05:27;;;;;;;;;14.00;14.00;;;;;7.11;71.45;101982.69;5036775;28;45323;-81
2023/01/26 14:07:53;;;;;;;;;16.75;16.00;;;;;7.17;71.46;101990.59;5037059;28;45553;-78
2023/01/26 14:10:21;;;;;;;;;17.75;17.75;;;;;7.15;71.50;101991.50;5036894;28;45309;-78
2023/01/26 14:12:50;;;;;;;;;20.25;18.25;;;;;7.22;71.85;102001.22;5036852;28;45350;-77
2023/01/26 14:15:25;;;;;;;;;18.50;16.25;;;;;7.28;72.23;102006.47;5037284;28;45532;-78
2023/01/26 14:17:59;;;;;;;;;21.25;19.75;;;;;7.07;71.83;101961.38;5037450;28;45390;-79
2023/01/26 14:20:26;;;;;;;;;16.50;15.00;;;;;7.33;71.73;102006.41;5037362;28;47281;-78
2023/01/26 14:23:12;;;;;;;;;22.25;20.50;;;;;7.33;72.50;101999.28;5037225;28;46035;-79
2023/01/26 14:25:39;;;;;;;;;23.75;23.00;;;;;7.20;72.58;101976.34;5037424;28;45443;-79
2023/01/26 14:28:05;;;;;;;;;20.75;20.00;;;;;7.29;72.42;101986.91;5032907;28;45333;-78
2023/01/26 14:30:33;;;;;;;;;21.00;17.25;;;;;7.39;72.45;102001.03;5036875;28;45542;-78
2023/01/26 14:33:10;;;;;;;;;21.50;19.75;;;;;7.43;72.48;101995.59;5035865;28;45379;-79
2023/01/26 14:35:36;;;;;;;;;24.50;20.75;;;;;7.47;72.17;101999.13;5018267;28;45561;-77
2023/01/26 14:38:10;;;;;;;;;20.00;17.00;;;;;7.46;72.17;102002.69;5037642;28;45903;-78
2023/01/26 14:40:44;;;;;;;;;12.25;11.75;;;;;7.44;72.53;101996.50;5036512;28;45391;-81
2023/01/26 14:43:11;;;;;;;;;16.75;15.00;;;;;7.35;72.45;101973.47;5036549;28;45398;-80
2023/01/26 14:45:44;;;;;;;;;12.50;12.25;;;;;7.39;72.54;101990.34;5018341;28;45359;-78
2023/01/26 14:48:14;;;;;;;;;15.75;15.75;;;;;7.29;72.41;101978.03;5036242;28;45406;-79
2023/01/26 14:50:40;;;;;;;;;14.50;12.50;;;;;7.40;72.42;102000.13;5036454;28;45378;-80
2023/01/26 14:53:18;;;;;;;;;20.00;15.50;;;;;7.37;72.69;101992.16;5036101;28;45458;-81
2023/01/26 14:55:44;;;;;;;;;13.50;13.50;;;;;7.33;72.56;101993.97;5037223;28;45402;-79
2023/01/26 14:58:31;;;;;;;;;12.25;11.25;;;;;7.42;72.65;102007.19;5015888;28;45356;-79
2023/01/26 15:00:58;;;;;;;;;16.00;14.25;;;;;7.43;72.70;102010.72;5027143;28;45327;-79
2023/01/26 15:03:33;;;;;;;;;15.00;12.75;;;;;7.38;72.94;102000.13;5040613;28;46161;-79
2023/01/26 15:06:17;;;;;;;;;16.75;13.50;;;;;7.41;72.63;102009.88;5042714;28;45280;-79
2023/01/26 15:09:15;;;;;;;;;15.75;15.75;;;;;7.37;73.42;102000.16;5030663;28;45406;-79
2023/01/26 15:14:56;;;;;;;;;14.00;11.25;;;;;7.38;73.73;102023.25;5034207;28;45248;-78
2023/01/26 15:17:34;;;;;;;;;16.25;15.25;;;;;7.40;73.91;102018.78;5035686;28;45254;-79
2023/01/26 15:20:00;;;;;;;;;12.25;12.00;;;;;7.40;73.45;102019.66;5036153;28;45371;-77
2023/01/26 15:22:25;;;;;;;;;18.75;15.00;;;;;7.23;73.72;101987.84;5035941;28;45439;-78
2023/01/26 15:25:01;;;;;;;;;17.50;15.75;;;;;7.43;74.10;102018.75;5017515;28;48105;-79
2023/01/26 15:27:34;;;;;;;;;14.50;14.00;;;;;7.39;74.16;102004.56;5035595;28;45370;-81
2023/01/26 15:30:00;;;;;;;;;13.75;13.75;;;;;7.40;74.33;101997.44;5035742;28;45391;-79
2023/01/26 15:32:29;;;;;;;;;22.00;21.00;;;;;7.40;74.37;101995.63;5035171;28;46032;-79
2023/01/26 15:35:24;;;;;;;;;18.75;16.25;;;;;7.30;74.68;101979.78;5017392;28;47326;-79
2023/01/26 15:38:07;;;;;;;;;17.50;16.25;;;;;7.47;74.56;102001.81;5035108;28;45246;-79
2023/01/26 15:40:33;;;;;;;;;23.75;22.25;;;;;7.53;74.41;102009.72;5035518;28;45477;-78
2023/01/26 15:43:14;;;;;;;;;23.25;21.00;;;;;7.55;74.36;102018.59;5035416;28;45360;-79
2023/01/26 15:45:47;;;;;;;;;21.00;19.00;;;;;7.52;74.85;102002.63;5034751;28;45442;-80
2023/01/26 15:48:12;;;;;;;;;23.75;20.00;;;;;7.50;74.90;101996.41;5017116;28;45349;-78
2023/01/26 15:50:38;;;;;;;;;26.50;22.00;;;;;7.49;74.94;102003.53;5035414;28;45383;-80
2023/01/26 15:53:03;;;;;;;;;21.50;20.00;;;;;7.47;74.89;101988.47;5036208;28;45525;-78
2023/01/26 15:55:32;;;;;;;;;17.75;17.75;;;;;7.65;75.12;102014.91;5017232;28;48639;-77
2023/01/26 15:57:57;;;;;;;;;25.75;23.00;;;;;7.68;75.20;102027.31;5036247;28;45361;-79
2023/01/26 16:00:22;;;;;;;;;28.50;25.25;;;;;7.70;74.94;102017.50;5036906;28;45379;-78
2023/01/26 16:02:48;;;;;;;;;25.00;23.25;;;;;7.68;75.34;102017.50;5036164;28;45304;-79
2023/01/26 16:05:19;;;;;;;;;29.00;26.25;;;;;7.75;75.38;102018.31;5037691;28;46593;-78
2023/01/26 16:07:45;;;;;;;;;24.75;20.25;;;;;7.73;75.17;102015.69;5050281;28;45410;-78
2023/01/26 16:10:13;;;;;;;;;22.00;22.00;;;;;7.69;75.04;102002.38;5040678;28;45330;-81
2023/01/26 16:12:38;;;;;;;;;25.25;24.50;;;;;7.72;75.50;102011.25;5040580;28;45301;-81
2023/01/26 16:15:23;;;;;;;;;32.25;26.25;;;;;7.81;75.28;102036.94;5039791;28;45484;-83
2023/01/26 16:17:48;;;;;;;;;25.00;25.00;;;;;7.76;75.32;102015.63;5041292;28;45426;-82
2023/01/26 16:20:14;;;;;;;;;28.25;26.00;;;;;7.65;75.71;102006.00;5038798;28;45260;-83
2023/01/26 16:22:39;;;;;;;;;31.25;27.25;;;;;7.46;75.20;101973.34;5024575;28;46910;-81
2023/01/26 16:25:21;;;;;;;;;26.75;21.00;;;;;7.75;75.23;102016.53;5041269;28;46364;-81
2023/01/26 16:27:47;;;;;;;;;30.75;25.00;;;;;7.86;75.44;102035.94;5009290;28;45515;-80
2023/01/26 16:30:12;;;;;;;;;20.00;18.25;;;;;7.64;75.63;101996.25;5038962;28;45301;-81
2023/01/26 16:32:41;;;;;;;;;24.25;23.00;;;;;7.62;75.05;101990.03;5042177;28;45494;-78
2023/01/26 16:35:19;;;;;;;;;29.25;23.50;;;;;7.66;75.05;101987.28;5063043;28;45676;-82
2023/01/26 16:37:45;;;;;;;;;27.50;24.75;;;;;7.74;74.92;101995.22;5046950;28;45324;-82
2023/01/26 16:40:14;;;;;;;;;25.75;24.50;;;;;7.99;75.27;102040.19;5024549;28;45301;-78
2023/01/26 16:42:44;;;;;;;;;30.00;26.25;;;;;7.74;74.95;101993.41;5038192;28;45440;-80
2023/01/26 16:45:21;;;;;;;;;32.25;26.50;;;;;7.87;74.88;102013.69;5007224;28;46189;-79
2023/01/26 16:47:49;;;;;;;;;24.25;21.50;;;;;7.97;74.53;102026.00;5038830;28;45432;-79
2023/01/26 16:50:14;;;;;;;;;27.75;26.50;;;;;8.02;74.85;102035.72;5037991;28;45288;-79
2023/01/26 16:52:40;;;;;;;;;24.25;21.00;;;;;8.01;74.55;102025.94;5037313;28;46727;-79
2023/01/26 16:55:11;;;;;;;;;23.00;23.00;;;;;7.75;74.77;101978.25;5005096;28;47603;-79
2023/01/26 16:57:38;;;;;;;;;27.50;22.50;;;;;7.83;74.68;102001.28;5040890;28;45451;-80
2023/01/26 17:00:03;;;;;;;;;21.75;21.50;;;;;7.95;74.40;102021.59;5038768;28;45526;-80
2023/01/26 17:02:34;;;;;;;;;22.75;22.00;;;;;7.87;74.17;101997.66;5040474;28;45376;-80
2023/01/26 17:04:59;;;;;;;;;22.50;18.75;;;;;8.17;74.08;102054.19;5036954;28;46661;-78
2023/01/26 17:07:25;;;;;;;;;20.50;18.75;;;;;8.18;74.02;102053.28;5042876;28;45509;-79